Time;durP1;ratioP1;P1;durP2;ratioP2;P2;SDS_P1;SDS_P2;PMS_P1;PMS_P2;Temp;Humidity;BMP_temperature;BMP_pressure;BME280_temperature;BME280_humidity;BME280_pressure;Samples;Min_cycle;Max_cycle;Signal;HPM_P1;HPM_P2
2023/08/18 00:01:17;;;;;;;;;;;;;;;28.49;26.93;102035.53;5075566;28;19916;-65
2023/08/18 00:03:45;;;;;;;;;;;;;;;28.43;26.86;102031.13;5075652;28;19928;-65
2023/08/18 00:06:11;;;;;;;;;;;;;;;28.37;27.34;102028.34;5060703;28;19912;-64
2023/08/18 00:08:37;;;;;;;;;;;;;;;28.37;26.82;102033.06;5079735;28;20007;-64
2023/08/18 00:11:03;;;;;;;;;;;;;;;28.36;27.15;102028.63;5079093;28;19913;-65
2023/08/18 00:13:28;;;;;;;;;;;;;;;28.34;27.18;102033.59;5079863;28;19919;-64
2023/08/18 00:15:54;;;;;;;;;;;;;;;28.20;27.11;102041.63;5078040;28;20011;-64
2023/08/18 00:18:19;;;;;;;;;;;;;;;28.13;27.64;102041.88;5078423;28;19931;-64
2023/08/18 00:20:44;;;;;;;;;;;;;;;28.09;27.63;102039.94;5059070;28;20254;-64
2023/08/18 00:23:09;;;;;;;;;;;;;;;28.05;27.42;102041.59;5076670;28;19982;-64
2023/08/18 00:25:35;;;;;;;;;;;;;;;28.03;27.50;102044.63;5076280;28;19912;-64
2023/08/18 00:28:00;;;;;;;;;;;;;;;28.00;27.56;102051.50;5076990;28;20265;-64
2023/08/18 00:30:25;;;;;;;;;;;;;;;27.97;27.64;102049.31;5076604;28;19916;-65
2023/08/18 00:32:51;;;;;;;;;;;;;;;27.94;27.89;102046.28;5076474;28;19939;-64
2023/08/18 00:35:16;;;;;;;;;;;;;;;27.85;27.86;102054.22;5075243;28;20245;-65
2023/08/18 00:37:43;;;;;;;;;;;;;;;27.91;27.58;102055.09;5074875;28;19916;-64
2023/08/18 00:40:10;;;;;;;;;;;;;;;27.87;27.92;102063.06;5076329;28;19912;-64
2023/08/18 00:42:35;;;;;;;;;;;;;;;27.86;27.76;102058.66;5076000;28;19947;-64
2023/08/18 00:45:00;;;;;;;;;;;;;;;27.77;27.61;102063.03;5075730;28;19959;-64
2023/08/18 00:47:26;;;;;;;;;;;;;;;27.76;27.67;102064.13;5075984;28;19916;-64
2023/08/18 00:49:52;;;;;;;;;;;;;;;27.74;27.85;102058.88;5075793;28;20233;-64
2023/08/18 00:52:18;;;;;;;;;;;;;;;27.74;27.74;102055.28;5075942;28;19912;-64
2023/08/18 00:54:44;;;;;;;;;;;;;;;27.65;28.18;102054.97;5075225;28;20395;-64
2023/08/18 00:57:09;;;;;;;;;;;;;;;27.64;28.36;102058.00;5075942;28;19947;-65
2023/08/18 00:59:35;;;;;;;;;;;;;;;27.59;28.18;102048.59;5075956;28;19913;-64
2023/08/18 01:02:02;;;;;;;;;;;;;;;27.62;28.10;102055.53;5084673;28;19927;-64
2023/08/18 01:04:28;;;;;;;;;;;;;;;27.56;27.99;102051.91;5098287;28;20300;-64
2023/08/18 01:06:54;;;;;;;;;;;;;;;27.52;28.38;102055.47;5081342;28;19999;-64
2023/08/18 01:09:19;;;;;;;;;;;;;;;27.47;28.24;102059.06;5076182;28;19917;-65
2023/08/18 01:11:55;;;;;;;;;;;;;;;27.40;28.46;102061.22;5075339;28;19912;-65
2023/08/18 01:14:20;;;;;;;;;;;;;;;27.41;28.32;102060.09;5074942;28;20038;-64
2023/08/18 01:16:51;;;;;;;;;;;;;;;27.37;28.31;102062.56;5075207;28;20395;-64
2023/08/18 01:19:20;;;;;;;;;;;;;;;27.27;28.51;102051.50;5076442;28;19999;-64
2023/08/18 01:21:48;;;;;;;;;;;;;;;27.19;28.53;102051.94;5075962;28;20286;-64
2023/08/18 01:24:13;;;;;;;;;;;;;;;27.19;28.42;102060.22;5076428;28;19912;-64
2023/08/18 01:26:38;;;;;;;;;;;;;;;27.12;28.85;102063.25;5076231;28;19912;-64
2023/08/18 01:29:04;;;;;;;;;;;;;;;27.15;28.47;102062.69;5076301;28;19916;-64
2023/08/18 01:31:31;;;;;;;;;;;;;;;27.06;28.98;102058.81;5076328;28;19916;-64
2023/08/18 01:34:05;;;;;;;;;;;;;;;27.00;28.78;102057.09;5076627;28;19916;-64
2023/08/18 01:36:33;;;;;;;;;;;;;;;26.94;28.61;102071.94;5073527;28;20011;-65
2023/08/18 01:39:00;;;;;;;;;;;;;;;26.93;28.66;102067.50;5072148;28;19962;-65
2023/08/18 01:41:26;;;;;;;;;;;;;;;26.92;28.51;102063.94;5072119;28;20004;-65
2023/08/18 01:43:51;;;;;;;;;;;;;;;26.86;28.95;102062.25;5073270;28;20341;-65
2023/08/18 01:46:17;;;;;;;;;;;;;;;26.89;28.93;102060.88;5073199;28;19928;-65
2023/08/18 01:48:42;;;;;;;;;;;;;;;26.78;29.82;102047.03;5073752;28;19966;-65
2023/08/18 01:51:07;;;;;;;;;;;;;;;26.74;29.36;102048.63;5074417;28;20003;-64
2023/08/18 01:53:33;;;;;;;;;;;;;;;26.75;29.19;102047.53;5074780;28;19960;-64
2023/08/18 01:56:02;;;;;;;;;;;;;;;26.80;29.34;102047.59;5073699;28;19916;-64
2023/08/18 01:58:28;;;;;;;;;;;;;;;26.82;28.94;102045.41;5073731;28;20364;-64
2023/08/18 02:00:57;;;;;;;;;;;;;;;26.86;29.15;102042.94;5073661;28;19912;-64
2023/08/18 02:03:22;;;;;;;;;;;;;;;26.82;30.03;102037.13;5073033;28;20019;-64
2023/08/18 02:05:48;;;;;;;;;;;;;;;26.79;29.13;102042.34;5074311;28;20462;-64
2023/08/18 02:08:13;;;;;;;;;;;;;;;26.82;29.49;102039.88;5076711;28;19912;-65
2023/08/18 02:10:38;;;;;;;;;;;;;;;26.78;29.06;102043.41;5075238;28;20367;-64
2023/08/18 02:13:03;;;;;;;;;;;;;;;26.75;29.35;102043.97;5076429;28;19943;-64
2023/08/18 02:15:29;;;;;;;;;;;;;;;26.79;29.40;102043.16;5076896;28;20387;-64
2023/08/18 02:17:54;;;;;;;;;;;;;;;26.80;29.34;102046.72;5077161;28;20340;-64
2023/08/18 02:20:20;;;;;;;;;;;;;;;26.75;29.91;102047.53;5076611;28;19913;-65
2023/08/18 02:22:45;;;;;;;;;;;;;;;26.76;29.13;102045.59;5079144;28;20387;-64
2023/08/18 02:25:10;;;;;;;;;;;;;;;26.77;29.17;102047.28;5079856;28;19913;-64
2023/08/18 02:27:35;;;;;;;;;;;;;;;26.76;29.67;102042.84;5079953;28;19916;-64
2023/08/18 02:30:01;;;;;;;;;;;;;;;26.69;29.38;102047.75;5079636;28;19912;-64
2023/08/18 02:32:26;;;;;;;;;;;;;;;26.64;29.44;102052.13;5073448;28;19920;-65
2023/08/18 02:34:52;;;;;;;;;;;;;;;26.59;29.33;102054.81;5072543;28;19917;-65
2023/08/18 02:37:17;;;;;;;;;;;;;;;26.55;29.54;102056.44;5073486;28;20042;-65
2023/08/18 02:39:42;;;;;;;;;;;;;;;26.50;29.31;102061.06;5073722;28;19922;-65
2023/08/18 02:42:07;;;;;;;;;;;;;;;26.46;29.17;102058.00;5072811;28;20079;-65
2023/08/18 02:44:33;;;;;;;;;;;;;;;26.41;29.75;102058.81;5072713;28;19912;-65
2023/08/18 02:46:58;;;;;;;;;;;;;;;26.35;29.69;102054.31;5072844;28;20010;-65
2023/08/18 02:49:23;;;;;;;;;;;;;;;26.30;29.44;102057.06;5072786;28;19920;-65
2023/08/18 02:51:48;;;;;;;;;;;;;;;26.33;29.48;102055.69;5072592;28;19913;-65
2023/08/18 02:54:14;;;;;;;;;;;;;;;26.25;29.32;102060.56;5072405;28;19912;-64
2023/08/18 02:56:39;;;;;;;;;;;;;;;26.25;29.47;102059.75;5073477;28;19912;-64
2023/08/18 02:59:05;;;;;;;;;;;;;;;26.22;29.91;102060.25;5077382;28;19952;-64
2023/08/18 03:01:30;;;;;;;;;;;;;;;26.20;30.00;102054.19;5081328;28;19955;-64
2023/08/18 03:03:55;;;;;;;;;;;;;;;26.22;29.59;102060.25;5097805;28;19928;-64
2023/08/18 03:06:21;;;;;;;;;;;;;;;26.23;29.79;102060.00;5098309;28;19916;-64
2023/08/18 03:08:46;;;;;;;;;;;;;;;26.19;29.79;102053.38;5081885;28;20023;-64
2023/08/18 03:11:11;;;;;;;;;;;;;;;26.20;29.76;102051.44;5099934;28;19995;-64
2023/08/18 03:13:37;;;;;;;;;;;;;;;26.23;29.89;102053.69;5094120;28;19922;-64
2023/08/18 03:16:04;;;;;;;;;;;;;;;26.22;29.94;102054.75;5080019;28;20376;-64
2023/08/18 03:18:29;;;;;;;;;;;;;;;26.26;29.96;102062.25;5080339;28;19916;-64
2023/08/18 03:20:59;;;;;;;;;;;;;;;26.35;30.07;102056.25;5061630;28;20332;-64
2023/08/18 03:23:24;;;;;;;;;;;;;;;26.37;30.29;102056.81;5079038;28;19917;-64
2023/08/18 03:25:50;;;;;;;;;;;;;;;26.38;29.94;102053.81;5077748;28;19939;-64
2023/08/18 03:28:15;;;;;;;;;;;;;;;26.37;29.81;102051.31;5077816;28;20355;-64
2023/08/18 03:30:40;;;;;;;;;;;;;;;26.38;29.94;102058.50;5062538;28;19943;-64
2023/08/18 03:33:08;;;;;;;;;;;;;;;26.39;30.00;102062.91;5076066;28;19919;-64
2023/08/18 03:35:35;;;;;;;;;;;;;;;26.36;29.96;102066.19;5076437;28;19913;-64
2023/08/18 03:38:04;;;;;;;;;;;;;;;26.34;30.18;102066.47;5075925;28;19913;-64
2023/08/18 03:40:29;;;;;;;;;;;;;;;26.36;30.36;102061.50;5058405;28;19920;-64
2023/08/18 03:42:55;;;;;;;;;;;;;;;26.31;29.85;102061.47;5076045;28;19916;-64
2023/08/18 03:45:20;;;;;;;;;;;;;;;26.27;30.06;102058.38;5076041;28;20285;-64
2023/08/18 03:47:45;;;;;;;;;;;;;;;26.21;30.01;102059.44;5076192;28;19916;-64
2023/08/18 03:50:11;;;;;;;;;;;;;;;26.24;30.28;102063.59;5075831;28;20307;-64
2023/08/18 03:52:37;;;;;;;;;;;;;;;26.20;30.13;102070.72;5076062;28;19916;-64
2023/08/18 03:55:04;;;;;;;;;;;;;;;26.14;30.10;102074.50;5075411;28;19958;-64
2023/08/18 03:57:30;;;;;;;;;;;;;;;26.10;30.13;102074.19;5075974;28;19967;-64
2023/08/18 03:59:55;;;;;;;;;;;;;;;26.06;30.43;102068.38;5075673;28;20270;-64
2023/08/18 04:02:21;;;;;;;;;;;;;;;26.05;30.20;102072.19;5085464;28;19920;-64
2023/08/18 04:04:47;;;;;;;;;;;;;;;26.05;30.02;102068.63;5095974;28;20014;-64
2023/08/18 04:07:12;;;;;;;;;;;;;;;26.02;30.38;102072.75;5095587;28;20348;-64
2023/08/18 04:09:38;;;;;;;;;;;;;;;26.04;30.21;102084.31;5090391;28;19916;-64
2023/08/18 04:12:03;;;;;;;;;;;;;;;26.09;30.47;102083.53;5075583;28;19913;-64
2023/08/18 04:14:28;;;;;;;;;;;;;;;26.10;30.47;102079.72;5057577;28;20015;-64
2023/08/18 04:16:53;;;;;;;;;;;;;;;26.10;30.38;102085.22;5075660;28;19948;-64
2023/08/18 04:19:19;;;;;;;;;;;;;;;26.10;30.43;102081.63;5075721;28;19977;-65
2023/08/18 04:21:44;;;;;;;;;;;;;;;26.09;30.61;102091.78;5075887;28;19920;-65
2023/08/18 04:24:09;;;;;;;;;;;;;;;26.12;30.43;102091.28;5075903;28;20257;-64
2023/08/18 04:26:37;;;;;;;;;;;;;;;26.13;30.66;102094.88;5076049;28;19913;-64
2023/08/18 04:29:02;;;;;;;;;;;;;;;26.12;30.29;102096.78;5076035;28;19947;-64
2023/08/18 04:31:28;;;;;;;;;;;;;;;26.13;30.46;102083.84;5057567;28;19947;-64
2023/08/18 04:33:53;;;;;;;;;;;;;;;26.11;30.20;102095.13;5074632;28;20018;-63
2023/08/18 04:36:18;;;;;;;;;;;;;;;26.10;30.47;102087.97;5074616;28;20383;-64
2023/08/18 04:38:43;;;;;;;;;;;;;;;26.08;30.37;102090.16;5074297;28;19917;-64
2023/08/18 04:41:09;;;;;;;;;;;;;;;26.11;30.17;102091.53;5074460;28;20479;-64
2023/08/18 04:43:34;;;;;;;;;;;;;;;26.07;30.39;102091.22;5056757;28;20008;-64
2023/08/18 04:46:00;;;;;;;;;;;;;;;26.11;30.09;102094.28;5074471;28;19912;-64
2023/08/18 04:48:25;;;;;;;;;;;;;;;26.06;30.42;102095.91;5074514;28;19966;-64
2023/08/18 04:50:51;;;;;;;;;;;;;;;26.07;30.09;102094.81;5074401;28;19924;-64
2023/08/18 04:53:16;;;;;;;;;;;;;;;26.13;30.58;102089.34;5077489;28;19970;-63
2023/08/18 04:55:42;;;;;;;;;;;;;;;26.22;30.61;102087.81;5059186;28;19949;-64
2023/08/18 04:58:12;;;;;;;;;;;;;;;26.20;30.38;102090.00;5057617;28;19969;-64
2023/08/18 05:00:39;;;;;;;;;;;;;;;26.25;30.34;102095.56;5076038;28;20341;-64
2023/08/18 05:03:04;;;;;;;;;;;;;;;26.23;30.07;102087.56;5076165;28;19916;-64
2023/08/18 05:05:29;;;;;;;;;;;;;;;26.25;30.09;102095.56;5076884;28;19970;-64
2023/08/18 05:07:55;;;;;;;;;;;;;;;26.25;30.25;102090.06;5075810;28;20318;-64
2023/08/18 05:10:20;;;;;;;;;;;;;;;26.28;30.10;102095.06;5075765;28;19916;-63
2023/08/18 05:12:45;;;;;;;;;;;;;;;26.29;30.48;102104.97;5076739;28;19916;-64
2023/08/18 05:15:11;;;;;;;;;;;;;;;26.35;30.35;102103.91;5075823;28;19994;-64
2023/08/18 05:17:36;;;;;;;;;;;;;;;26.45;30.25;102105.97;5075985;28;19923;-64
2023/08/18 05:20:02;;;;;;;;;;;;;;;26.49;30.38;102103.50;5076877;28;19916;-64
2023/08/18 05:22:28;;;;;;;;;;;;;;;26.54;30.50;102111.81;5076931;28;20414;-63
2023/08/18 05:24:53;;;;;;;;;;;;;;;26.63;30.55;102110.28;5076881;28;19919;-63
2023/08/18 05:27:18;;;;;;;;;;;;;;;26.75;30.12;102115.63;5076702;28;20022;-63
2023/08/18 05:29:43;;;;;;;;;;;;;;;26.83;30.42;102106.88;5076407;28;19912;-63
2023/08/18 05:32:09;;;;;;;;;;;;;;;26.97;30.42;102108.09;5077820;28;20274;-64
2023/08/18 05:34:34;;;;;;;;;;;;;;;27.06;30.29;102113.94;5061809;28;19955;-64
2023/08/18 05:37:00;;;;;;;;;;;;;;;27.19;30.04;102113.50;5067888;28;19916;-64
2023/08/18 05:39:25;;;;;;;;;;;;;;;27.22;29.93;102107.41;5061144;28;19978;-64
2023/08/18 05:41:50;;;;;;;;;;;;;;;27.28;29.86;102111.06;5077714;28;19917;-64
2023/08/18 05:44:16;;;;;;;;;;;;;;;27.35;29.89;102116.38;5077070;28;19917;-64
2023/08/18 05:46:41;;;;;;;;;;;;;;;27.36;30.03;102115.28;5077629;28;19916;-64
2023/08/18 05:49:07;;;;;;;;;;;;;;;27.44;29.88;102108.44;5058361;28;20262;-65
2023/08/18 05:51:32;;;;;;;;;;;;;;;27.52;29.61;102110.66;5074100;28;19924;-65
2023/08/18 05:53:57;;;;;;;;;;;;;;;27.61;29.69;102103.53;5055247;28;19920;-64
2023/08/18 05:56:22;;;;;;;;;;;;;;;27.65;29.69;102106.59;5074044;28;19923;-64
2023/08/18 05:58:48;;;;;;;;;;;;;;;27.71;29.55;102102.75;5074219;28;19966;-64
2023/08/18 06:01:14;;;;;;;;;;;;;;;27.78;29.44;102104.16;5074860;28;19999;-64
2023/08/18 06:03:40;;;;;;;;;;;;;;;27.87;29.37;102111.94;5090450;28;20272;-64
2023/08/18 06:06:05;;;;;;;;;;;;;;;27.91;29.31;102119.41;5096340;28;19923;-64
2023/08/18 06:08:32;;;;;;;;;;;;;;;27.93;29.44;102117.22;5096059;28;19949;-64
2023/08/18 06:10:57;;;;;;;;;;;;;;;27.98;29.42;102124.72;5094494;28;20360;-65
2023/08/18 06:13:22;;;;;;;;;;;;;;;28.06;29.35;102115.88;5074781;28;19946;-65
2023/08/18 06:15:52;;;;;;;;;;;;;;;28.13;29.30;102123.94;5093384;28;19920;-64
2023/08/18 06:18:18;;;;;;;;;;;;;;;28.18;29.20;102123.94;5093151;28;19919;-65
2023/08/18 06:20:44;;;;;;;;;;;;;;;28.17;28.99;102125.03;5092952;28;19919;-65
2023/08/18 06:23:10;;;;;;;;;;;;;;;28.18;29.26;102124.75;5092826;28;19912;-65
2023/08/18 06:25:35;;;;;;;;;;;;;;;28.23;29.13;102123.97;5092994;28;19916;-65
2023/08/18 06:28:00;;;;;;;;;;;;;;;28.30;29.07;102115.41;5093707;28;19969;-65
2023/08/18 06:30:25;;;;;;;;;;;;;;;28.38;28.94;102114.88;5093044;28;20347;-65
2023/08/18 06:32:51;;;;;;;;;;;;;;;28.42;28.99;102120.66;5092615;28;19920;-65
2023/08/18 06:35:16;;;;;;;;;;;;;;;28.50;29.02;102109.91;5093302;28;19924;-65
2023/08/18 06:37:41;;;;;;;;;;;;;;;28.54;28.52;102104.69;5075836;28;19912;-65
2023/08/18 06:40:07;;;;;;;;;;;;;;;28.61;28.76;102109.97;5094606;28;19965;-65
2023/08/18 06:42:32;;;;;;;;;;;;;;;28.62;28.57;102111.59;5074540;28;20345;-65
2023/08/18 06:44:57;;;;;;;;;;;;;;;28.72;28.75;102108.84;5072822;28;19912;-64
2023/08/18 06:47:23;;;;;;;;;;;;;;;28.82;29.10;102113.53;5073287;28;19936;-64
2023/08/18 06:49:48;;;;;;;;;;;;;;;28.99;28.62;102107.72;5073220;28;19995;-64
2023/08/18 06:52:13;;;;;;;;;;;;;;;29.09;28.45;102102.19;5072773;28;20012;-64
2023/08/18 06:54:39;;;;;;;;;;;;;;;29.17;28.42;102107.19;5037760;28;20311;-64
2023/08/18 06:57:04;;;;;;;;;;;;;;;29.24;28.06;102101.38;5074200;28;19962;-64
2023/08/18 06:59:29;;;;;;;;;;;;;;;29.31;28.10;102099.13;5055528;28;19982;-64
2023/08/18 07:01:55;;;;;;;;;;;;;;;29.33;27.90;102110.75;5079529;28;19912;-64
2023/08/18 07:04:20;;;;;;;;;;;;;;;29.38;27.91;102102.41;5092071;28;19916;-64
2023/08/18 07:06:46;;;;;;;;;;;;;;;29.48;28.18;102107.13;5092478;28;19920;-65
2023/08/18 07:09:11;;;;;;;;;;;;;;;29.45;27.91;102111.25;5091912;28;19961;-63
2023/08/18 07:11:37;;;;;;;;;;;;;;;29.48;27.92;102115.41;5091481;28;20326;-63
2023/08/18 07:14:03;;;;;;;;;;;;;;;29.49;27.76;102117.06;5091423;28;19916;-63
2023/08/18 07:16:28;;;;;;;;;;;;;;;29.54;28.19;102106.78;5092556;28;19912;-63
2023/08/18 07:18:54;;;;;;;;;;;;;;;29.57;27.63;102108.19;5092625;28;20280;-63
2023/08/18 07:21:19;;;;;;;;;;;;;;;29.63;27.74;102114.53;5077934;28;19918;-63
2023/08/18 07:23:44;;;;;;;;;;;;;;;29.66;28.15;102120.34;5072533;28;20308;-63
2023/08/18 07:26:10;;;;;;;;;;;;;;;29.73;28.16;102115.31;5072374;28;19961;-63
2023/08/18 07:28:35;;;;;;;;;;;;;;;29.81;28.03;102116.72;5072324;28;19916;-63
2023/08/18 07:31:02;;;;;;;;;;;;;;;29.92;27.77;102118.31;5072400;28;19920;-63
2023/08/18 07:33:27;;;;;;;;;;;;;;;30.04;27.88;102114.38;5053694;28;19923;-63
2023/08/18 07:35:53;;;;;;;;;;;;;;;30.18;27.67;102114.56;5071963;28;19921;-63
2023/08/18 07:38:18;;;;;;;;;;;;;;;30.18;27.87;102109.88;5072196;28;19912;-63
2023/08/18 07:40:43;;;;;;;;;;;;;;;30.27;27.81;102126.69;5072067;28;19912;-63
2023/08/18 07:43:09;;;;;;;;;;;;;;;30.38;27.82;102122.78;5072144;28;19912;-63
2023/08/18 07:45:34;;;;;;;;;;;;;;;30.53;27.84;102119.06;5075981;28;19919;-63
2023/08/18 07:48:00;;;;;;;;;;;;;;;30.64;27.32;102117.03;5075877;28;20007;-63
2023/08/18 07:50:25;;;;;;;;;;;;;;;30.75;27.15;102128.88;5075663;28;19920;-63
2023/08/18 07:52:50;;;;;;;;;;;;;;;30.93;27.37;102130.16;5075494;28;20019;-63
2023/08/18 07:55:18;;;;;;;;;;;;;;;31.12;27.72;102130.25;5074866;28;19971;-63
2023/08/18 07:57:43;;;;;;;;;;;;;;;31.17;26.93;102124.66;5075581;28;20369;-63
2023/08/18 08:00:19;;;;;;;;;;;;;;;31.22;26.73;102130.13;5075642;28;19924;-62
2023/08/18 08:02:45;;;;;;;;;;;;;;;31.26;27.35;102123.72;5081936;28;19916;-62
2023/08/18 08:05:10;;;;;;;;;;;;;;;31.30;26.79;102135.06;5075431;28;19924;-63
2023/08/18 08:07:36;;;;;;;;;;;;;;;31.36;26.96;102133.06;5075158;28;19957;-62
2023/08/18 08:10:04;;;;;;;;;;;;;;;31.36;26.49;102136.66;5075544;28;19913;-62
2023/08/18 08:12:30;;;;;;;;;;;;;;;31.17;26.72;102136.59;5075482;28;19913;-62
2023/08/18 08:14:56;;;;;;;;;;;;;;;31.19;26.57;102144.63;5075192;28;19916;-62
2023/08/18 08:17:21;;;;;;;;;;;;;;;31.19;26.74;102139.91;5057062;28;19951;-62
2023/08/18 08:19:47;;;;;;;;;;;;;;;31.17;26.94;102141.31;5040419;28;19923;-62
2023/08/18 08:22:12;;;;;;;;;;;;;;;31.23;26.50;102142.91;5075099;28;19913;-62
2023/08/18 08:24:37;;;;;;;;;;;;;;;31.29;26.95;102147.28;5075430;28;19912;-62
2023/08/18 08:27:03;;;;;;;;;;;;;;;31.32;26.38;102138.38;5075293;28;19912;-63
2023/08/18 08:29:28;;;;;;;;;;;;;;;31.29;26.40;102150.06;5075025;28;20393;-63
2023/08/18 08:31:53;;;;;;;;;;;;;;;31.32;26.38;102140.34;5075314;28;19999;-63
2023/08/18 08:34:20;;;;;;;;;;;;;;;31.34;26.24;102151.97;5057269;28;20460;-62
2023/08/18 08:36:45;;;;;;;;;;;;;;;31.36;26.20;102150.53;5074905;28;19989;-62
2023/08/18 08:39:11;;;;;;;;;;;;;;;31.44;26.76;102149.91;5074959;28;19919;-62
2023/08/18 08:41:36;;;;;;;;;;;;;;;31.49;26.18;102148.22;5074713;28;20364;-62
2023/08/18 08:44:01;;;;;;;;;;;;;;;31.62;25.67;102141.97;5076717;28;19912;-62
2023/08/18 08:46:29;;;;;;;;;;;;;;;31.83;26.06;102146.16;5076311;28;19912;-62
2023/08/18 08:48:56;;;;;;;;;;;;;;;31.99;25.65;102145.94;5074579;28;19916;-62
2023/08/18 08:51:25;;;;;;;;;;;;;;;32.10;25.78;102147.50;5074763;28;19917;-62
2023/08/18 08:53:52;;;;;;;;;;;;;;;32.10;25.02;102136.38;5074067;28;20328;-63
2023/08/18 08:56:19;;;;;;;;;;;;;;;32.08;24.79;102141.41;5074482;28;19912;-62
2023/08/18 08:58:45;;;;;;;;;;;;;;;32.01;24.56;102143.69;5075149;28;20389;-63
2023/08/18 09:01:11;;;;;;;;;;;;;;;32.03;24.51;102144.25;5075751;28;19936;-62
2023/08/18 09:03:36;;;;;;;;;;;;;;;32.02;24.68;102142.56;5094936;28;19973;-63
2023/08/18 09:06:02;;;;;;;;;;;;;;;32.02;24.63;102145.34;5094331;28;19931;-62
2023/08/18 09:08:27;;;;;;;;;;;;;;;31.98;24.72;102147.06;5092482;28;19919;-62
2023/08/18 09:10:52;;;;;;;;;;;;;;;31.94;25.24;102146.00;5074101;28;19919;-63
2023/08/18 09:13:18;;;;;;;;;;;;;;;31.86;24.61;102136.38;5073793;28;19912;-62
2023/08/18 09:15:47;;;;;;;;;;;;;;;31.87;25.21;102131.66;5073455;28;19977;-63
2023/08/18 09:18:14;;;;;;;;;;;;;;;31.83;25.00;102132.25;5073524;28;19913;-63
2023/08/18 09:20:40;;;;;;;;;;;;;;;31.88;25.16;102130.53;5073883;28;19912;-63
2023/08/18 09:23:07;;;;;;;;;;;;;;;31.79;25.18;102135.91;5073792;28;19922;-63
2023/08/18 09:25:35;;;;;;;;;;;;;;;31.81;25.29;102139.22;5073485;28;19913;-63
2023/08/18 09:28:04;;;;;;;;;;;;;;;31.87;24.89;102143.59;5073539;28;20000;-63
2023/08/18 09:30:32;;;;;;;;;;;;;;;31.95;25.19;102139.34;5073811;28;19948;-63
2023/08/18 09:33:01;;;;;;;;;;;;;;;32.00;24.77;102137.31;5073517;28;19919;-63
2023/08/18 09:35:31;;;;;;;;;;;;;;;32.08;24.95;102137.81;5073885;28;20015;-63
2023/08/18 09:37:57;;;;;;;;;;;;;;;32.15;24.83;102135.47;5073516;28;19912;-63
2023/08/18 09:40:22;;;;;;;;;;;;;;;32.16;24.44;102137.94;5073583;28;20429;-63
2023/08/18 09:42:47;;;;;;;;;;;;;;;32.30;24.87;102128.84;5073185;28;19959;-63
2023/08/18 09:45:13;;;;;;;;;;;;;;;32.40;24.73;102126.75;5073223;28;19919;-63
2023/08/18 09:47:42;;;;;;;;;;;;;;;32.51;24.44;102121.03;5073514;28;19913;-63
2023/08/18 09:50:09;;;;;;;;;;;;;;;32.57;24.44;102126.22;5072924;28;20402;-63
2023/08/18 09:52:36;;;;;;;;;;;;;;;32.63;24.23;102129.75;5072872;28;19916;-63
2023/08/18 09:55:12;;;;;;;;;;;;;;;32.63;23.25;102128.94;5072303;28;19921;-63
2023/08/18 09:57:42;;;;;;;;;;;;;;;32.62;23.42;102130.09;5073620;28;19923;-63
2023/08/18 10:00:09;;;;;;;;;;;;;;;32.63;23.06;102128.94;5073482;28;19912;-63
2023/08/18 10:02:36;;;;;;;;;;;;;;;32.63;23.80;102126.97;5083047;28;19919;-63
2023/08/18 10:05:02;;;;;;;;;;;;;;;32.74;24.09;102127.63;5038396;28;20115;-63
2023/08/18 10:07:28;;;;;;;;;;;;;;;32.77;23.48;102132.59;5072915;28;20347;-63
2023/08/18 10:09:54;;;;;;;;;;;;;;;32.76;23.44;102142.91;5072778;28;19916;-63
2023/08/18 10:12:20;;;;;;;;;;;;;;;32.86;23.72;102135.53;5072814;28;19935;-63
2023/08/18 10:14:45;;;;;;;;;;;;;;;32.94;23.58;102134.81;5072940;28;19916;-63
2023/08/18 10:17:11;;;;;;;;;;;;;;;33.01;23.68;102140.81;5072851;28;20274;-63
2023/08/18 10:19:49;;;;;;;;;;;;;;;33.09;23.56;102130.91;5072863;28;19981;-63
2023/08/18 10:22:16;;;;;;;;;;;;;;;33.16;23.74;102146.13;5073083;28;19917;-63
2023/08/18 10:24:43;;;;;;;;;;;;;;;33.20;23.07;102142.72;5073017;28;19942;-63
2023/08/18 10:27:10;;;;;;;;;;;;;;;33.30;23.15;102140.59;5073075;28;19912;-63
2023/08/18 10:29:36;;;;;;;;;;;;;;;33.42;22.81;102150.41;5072530;28;19913;-64
2023/08/18 10:32:08;;;;;;;;;;;;;;;33.53;22.55;102152.66;5072360;28;19958;-63
2023/08/18 10:34:35;;;;;;;;;;;;;;;33.53;22.38;102141.53;5072512;28;19916;-63
2023/08/18 10:37:03;;;;;;;;;;;;;;;33.62;22.79;102135.22;5072808;28;19962;-63
2023/08/18 10:39:36;;;;;;;;;;;;;;;33.83;23.01;102146.81;5037899;28;20280;-63
2023/08/18 10:42:07;;;;;;;;;;;;;;;33.86;22.58;102144.22;5072450;28;19913;-63
2023/08/18 10:44:33;;;;;;;;;;;;;;;33.78;22.20;102144.13;5072363;28;20412;-63
2023/08/18 10:47:00;;;;;;;;;;;;;;;33.70;22.32;102135.34;5037612;28;19913;-63
2023/08/18 10:49:25;;;;;;;;;;;;;;;33.66;22.59;102139.91;5072652;28;19946;-63
2023/08/18 10:51:52;;;;;;;;;;;;;;;33.66;22.54;102148.25;5072486;28;20002;-63
2023/08/18 10:54:18;;;;;;;;;;;;;;;33.58;22.58;102143.34;5070538;28;19931;-63
2023/08/18 10:56:43;;;;;;;;;;;;;;;33.58;22.68;102139.75;5072740;28;19912;-63
2023/08/18 10:59:08;;;;;;;;;;;;;;;33.73;23.01;102137.53;5072757;28;19916;-63
2023/08/18 11:01:34;;;;;;;;;;;;;;;33.92;22.46;102144.94;5075419;28;19934;-63
2023/08/18 11:03:59;;;;;;;;;;;;;;;34.12;22.89;102138.91;5092483;28;19988;-63
2023/08/18 11:06:26;;;;;;;;;;;;;;;34.33;22.80;102130.91;5092367;28;20336;-63
2023/08/18 11:08:53;;;;;;;;;;;;;;;34.35;22.37;102138.16;5076415;28;20567;-63
2023/08/18 11:11:19;;;;;;;;;;;;;;;34.46;22.03;102131.19;5054032;28;19912;-63
2023/08/18 11:13:44;;;;;;;;;;;;;;;34.56;22.40;102130.09;5072271;28;19916;-63
2023/08/18 11:16:10;;;;;;;;;;;;;;;34.64;22.12;102124.59;5072549;28;19938;-63
2023/08/18 11:18:36;;;;;;;;;;;;;;;34.82;21.55;102119.13;5072755;28;20269;-63
2023/08/18 11:21:01;;;;;;;;;;;;;;;35.05;22.17;102117.16;5076296;28;19970;-63
2023/08/18 11:23:26;;;;;;;;;;;;;;;35.13;21.59;102119.16;5076215;28;20349;-63
2023/08/18 11:25:52;;;;;;;;;;;;;;;35.35;21.63;102134.25;5075831;28;20389;-64
2023/08/18 11:28:17;;;;;;;;;;;;;;;35.51;21.51;102123.44;5076111;28;19913;-63
2023/08/18 11:30:44;;;;;;;;;;;;;;;35.71;21.33;102131.25;5075716;28;20015;-63
2023/08/18 11:33:10;;;;;;;;;;;;;;;35.86;21.21;102127.16;5075714;28;19951;-63
2023/08/18 11:35:35;;;;;;;;;;;;;;;35.94;20.83;102131.97;5075838;28;19927;-63
2023/08/18 11:38:01;;;;;;;;;;;;;;;36.10;20.80;102128.69;5075903;28;19913;-64
2023/08/18 11:40:27;;;;;;;;;;;;;;;36.29;20.63;102125.59;5075826;28;19999;-64
2023/08/18 11:42:53;;;;;;;;;;;;;;;36.38;20.79;102118.81;5075983;28;19924;-64
2023/08/18 11:45:25;;;;;;;;;;;;;;;36.53;20.39;102123.09;5075645;28;20420;-64
2023/08/18 11:47:58;;;;;;;;;;;;;;;36.68;19.69;102112.56;5075637;28;19983;-63
2023/08/18 11:50:33;;;;;;;;;;;;;;;36.84;19.40;102107.28;5075769;28;19918;-64
2023/08/18 11:52:58;;;;;;;;;;;;;;;36.97;19.46;102098.66;5074389;28;20396;-64
2023/08/18 11:55:38;;;;;;;;;;;;;;;37.11;19.59;102101.25;5074695;28;19921;-64
2023/08/18 11:58:05;;;;;;;;;;;;;;;37.29;19.18;102104.00;5075569;28;20015;-64
2023/08/18 12:00:35;;;;;;;;;;;;;;;37.38;19.39;102107.56;5075814;28;19952;-64
2023/08/18 12:03:01;;;;;;;;;;;;;;;37.49;19.42;102103.22;5091109;28;19916;-64
2023/08/18 12:05:28;;;;;;;;;;;;;;;37.68;19.15;102099.19;5095872;28;19916;-64
2023/08/18 12:07:54;;;;;;;;;;;;;;;37.80;19.08;102098.44;5095785;28;19919;-64
2023/08/18 12:10:22;;;;;;;;;;;;;;;37.94;18.89;102096.19;5095769;28;19912;-64
2023/08/18 12:12:51;;;;;;;;;;;;;;;38.13;18.31;102090.13;5095372;28;19919;-64
2023/08/18 12:15:16;;;;;;;;;;;;;;;38.08;17.45;102101.53;5095365;28;19920;-64
2023/08/18 12:17:42;;;;;;;;;;;;;;;38.18;17.55;102097.53;5095521;28;19919;-64
2023/08/18 12:20:07;;;;;;;;;;;;;;;38.29;17.96;102095.94;5094952;28;19919;-64
2023/08/18 12:22:33;;;;;;;;;;;;;;;38.11;17.35;102093.28;5075249;28;20011;-64
2023/08/18 12:24:58;;;;;;;;;;;;;;;38.28;18.24;102097.09;5075167;28;19935;-64
2023/08/18 12:27:26;;;;;;;;;;;;;;;38.58;17.68;102095.03;5075068;28;19924;-64
2023/08/18 12:29:52;;;;;;;;;;;;;;;38.89;17.62;102091.69;5073465;28;19917;-64